Time;durP1;ratioP1;P1;durP2;ratioP2;P2;SDS_P1;SDS_P2;PMS_P1;PMS_P2;Temp;Humidity;BMP_temperature;BMP_pressure;BME280_temperature;BME280_humidity;BME280_pressure;Samples;Min_cycle;Max_cycle;Signal;HPM_P1;HPM_P2
2021/04/06 00:00:16;;;;;;;8.63;2.17;;;1.70;99.90;;;0.06;86.87;100854.78;3539384;39;102205;-40
2021/04/06 00:02:51;;;;;;;5.63;2.10;;;1.80;99.90;;;0.09;87.08;100854.50;3538366;39;103088;-40
2021/04/06 00:05:21;;;;;;;6.38;1.90;;;1.80;99.90;;;0.19;87.05;100853.63;3537862;39;102527;-40
2021/04/06 00:07:52;;;;;;;8.43;1.95;;;1.90;99.90;;;0.19;86.47;100854.50;3530125;39;104334;-40
2021/04/06 00:10:40;;;;;;;6.72;2.05;;;1.90;99.90;;;0.24;86.80;100854.03;3529173;39;103146;-40
2021/04/06 00:13:09;;;;;;;6.93;1.58;;;2.00;99.90;;;0.28;86.39;100863.53;3531355;39;104011;-40
2021/04/06 00:15:38;;;;;;;7.47;2.17;;;2.00;99.90;;;0.34;85.93;100873.69;3537833;39;102263;-40
2021/04/06 00:18:09;;;;;;;9.13;1.70;;;2.10;99.90;;;0.37;85.67;100889.50;3530226;39;103200;-40
2021/04/06 00:20:40;;;;;;;8.02;2.05;;;2.10;99.90;;;0.40;85.82;100885.69;3538061;39;103806;-39
2021/04/06 00:23:11;;;;;;;6.72;1.90;;;2.10;99.90;;;0.42;85.65;100892.59;3505318;39;103257;-40
2021/04/06 00:25:46;;;;;;;8.63;2.05;;;2.20;99.90;;;0.40;85.51;100885.69;3529703;39;102569;-40
2021/04/06 00:28:22;;;;;;;11.30;2.38;;;2.10;99.90;;;0.50;85.16;100889.19;3538240;39;104078;-40
2021/04/06 00:30:53;;;;;;;7.03;1.80;;;2.20;99.90;;;0.50;84.48;100886.50;3522197;39;102717;-40
2021/04/06 00:33:28;;;;;;;7.20;1.60;;;2.20;99.90;;;0.51;85.07;100879.28;3513242;39;103171;-40
2021/04/06 00:36:00;;;;;;;6.55;1.73;;;2.20;99.90;;;0.51;84.91;100885.50;3538254;39;103406;-40
2021/04/06 00:38:36;;;;;;;8.68;1.92;;;2.30;99.90;;;0.50;84.65;100888.31;3513786;39;102608;-39
2021/04/06 00:41:11;;;;;;;7.35;1.65;;;2.20;99.90;;;0.42;84.44;100894.44;3538042;39;102518;-40
2021/04/06 00:43:42;;;;;;;9.98;1.95;;;2.20;99.90;;;0.36;84.52;100895.00;3513146;39;104171;-40
2021/04/06 00:46:19;;;;;;;9.68;2.05;;;2.20;99.90;;;0.35;84.97;100894.16;3513440;39;103389;-40
2021/04/06 00:48:53;;;;;;;11.40;2.00;;;2.10;99.90;;;0.33;85.29;100897.97;3672191;22;103752;-41
2021/04/06 00:51:21;;;;;;;4.68;1.50;;;2.10;99.90;;;0.31;84.99;100892.75;3540442;39;102292;-41
2021/04/06 00:53:55;;;;;;;6.75;1.48;;;2.10;99.90;;;0.31;85.70;100895.44;3539949;39;102389;-41
2021/04/06 00:56:28;;;;;;;5.82;1.77;;;2.00;99.90;;;0.32;84.94;100901.63;3548146;39;102502;-41
2021/04/06 00:59:09;;;;;;;7.30;1.42;;;2.10;99.90;;;0.40;84.91;100902.63;3547427;39;105078;-42
2021/04/06 01:01:49;;;;;;;6.68;1.73;;;2.10;99.90;;;0.43;85.50;100905.00;3541912;39;103282;-41
2021/04/06 01:04:21;;;;;;;5.38;1.45;;;2.10;99.90;;;0.39;85.62;100910.81;3550040;39;103991;-41
2021/04/06 01:07:08;;;;;;;8.55;1.80;;;2.10;99.90;;;0.40;85.58;100912.53;3541662;39;102432;-41
2021/04/06 01:09:50;;;;;;;9.32;1.40;;;2.20;99.90;;;0.40;85.79;100912.53;3549697;39;103106;-41
2021/04/06 01:12:21;;;;;;;5.93;1.35;;;2.20;99.90;;;0.41;85.61;100925.78;3542755;39;102374;-41
2021/04/06 01:14:52;;;;;;;4.88;1.42;;;2.20;99.90;;;0.47;86.04;100932.44;3549902;39;103144;-41
2021/04/06 01:17:27;;;;;;;7.97;1.95;;;2.20;99.90;;;0.48;85.95;100942.19;3558463;39;103400;-41
2021/04/06 01:20:06;;;;;;;7.50;1.58;;;2.20;99.90;;;0.43;85.46;100953.34;3559590;39;102306;-41
2021/04/06 01:22:34;;;;;;;6.32;1.30;;;2.20;99.90;;;0.44;86.10;100938.09;3542500;39;103714;-41
2021/04/06 01:25:04;;;;;;;5.70;1.45;;;2.20;99.90;;;0.32;86.02;100945.44;3549896;39;104619;-41
2021/04/06 01:27:31;;;;;;;10.93;1.50;;;2.10;99.90;;;0.26;85.93;100951.34;3541973;39;103761;-41
2021/04/06 01:29:59;;;;;;;6.07;1.45;;;2.10;99.90;;;0.13;86.67;100960.56;3541589;39;102150;-41
2021/04/06 01:32:28;;;;;;;5.65;1.60;;;1.90;99.90;;;0.11;86.75;100951.81;3525341;39;102403;-41
2021/04/06 01:34:56;;;;;;;8.75;1.67;;;1.90;99.90;;;-0.03;86.61;100950.38;3541458;39;104748;-40
2021/04/06 01:37:28;;;;;;;;;;;1.80;99.90;;;-0.16;86.93;100955.16;3542065;39;103198;-41
2021/04/06 01:39:59;;;;;;;4.28;0.93;;;1.70;99.90;;;-0.20;87.42;100935.81;3550084;39;103028;-40
2021/04/06 01:42:31;;;;;;;3.35;0.90;;;1.60;99.90;;;-0.20;88.46;100925.09;3559078;39;102344;-41
2021/04/06 01:45:04;;;;;;;4.43;0.98;;;1.60;99.90;;;-0.26;87.85;100912.25;3557411;39;104078;-41
2021/04/06 01:47:32;;;;;;;4.30;0.93;;;1.60;99.90;;;-0.40;88.59;100929.56;3549961;39;102409;-40
2021/04/06 01:50:00;;;;;;;4.43;0.90;;;1.50;99.90;;;-0.40;88.44;100942.13;3549910;39;102734;-41
2021/04/06 01:52:28;;;;;;;1.25;0.47;;;1.50;99.90;;;-0.42;89.12;100942.25;3558439;39;103153;-41
2021/04/06 01:55:05;;;;;;;;;;;1.40;99.90;;;-0.45;89.05;100945.22;3541997;39;103096;-41
2021/04/06 01:57:36;;;;;;;1.00;0.40;;;1.40;99.90;;;-0.50;89.71;100940.28;3542538;39;102356;-41
2021/04/06 02:00:22;;;;;;;4.20;0.63;;;1.30;99.90;;;-0.53;89.74;100942.38;3558197;39;103143;-41
2021/04/06 02:02:51;;;;;;;2.60;0.45;;;1.30;99.90;;;-0.51;89.80;100943.09;3550944;39;102431;-41
2021/04/06 02:05:23;;;;;;;2.75;0.70;;;1.30;99.90;;;-0.52;90.47;100944.06;3541295;39;105259;-41
2021/04/06 02:07:59;;;;;;;4.32;0.60;;;1.30;99.90;;;-0.54;91.03;100946.88;3541725;39;102597;-41
2021/04/06 02:10:26;;;;;;;4.22;0.82;;;1.30;99.90;;;-0.54;90.04;100949.56;3557778;39;104474;-41
2021/04/06 02:12:54;;;;;;;8.43;1.30;;;1.30;99.90;;;-0.51;90.47;100949.31;3541789;39;104100;-40
2021/04/06 02:15:22;;;;;;;4.55;1.20;;;1.30;99.90;;;-0.48;90.75;100945.50;3532943;39;103231;-41
2021/04/06 02:17:52;;;;;;;8.02;1.20;;;1.30;99.90;;;-0.44;91.32;100955.81;3541351;39;102927;-41
2021/04/06 02:20:25;;;;;;;4.22;1.20;;;1.30;99.90;;;-0.42;90.60;100962.88;3541805;39;105477;-41
2021/04/06 02:22:58;;;;;;;8.98;1.38;;;1.40;99.90;;;-0.40;90.71;100969.78;3557982;39;102544;-41
2021/04/06 02:25:29;;;;;;;9.68;1.83;;;1.40;99.90;;;-0.34;91.38;100965.72;3549330;39;104007;-41
2021/04/06 02:27:58;;;;;;;7.97;1.48;;;1.40;99.90;;;-0.32;90.70;100963.72;3549932;39;102339;-41
2021/04/06 02:33:04;;;;;;;6.43;1.48;;;1.50;99.90;;;-0.36;90.67;100946.22;3550638;39;102308;-41
2021/04/06 02:35:33;;;;;;;5.10;1.00;;;1.40;99.90;;;-0.32;90.98;100950.31;3541092;39;105202;-41
2021/04/06 02:38:05;;;;;;;12.15;1.60;;;1.50;99.90;;;-0.34;90.32;100949.63;3541513;39;102502;-42
2021/04/06 02:40:32;;;;;;;4.97;1.10;;;1.50;99.90;;;-0.34;91.38;100949.63;3524847;39;102436;-41
2021/04/06 02:42:59;;;;;;;8.02;1.05;;;1.40;99.90;;;-0.32;90.53;100958.38;3524992;39;102499;-41
2021/04/06 02:45:30;;;;;;;9.93;1.98;;;1.50;99.90;;;-0.32;91.00;100958.38;3524415;39;103239;-41
2021/04/06 02:50:40;;;;;;;5.35;1.50;;;1.50;99.90;;;-0.31;90.40;100976.16;3557934;39;103147;-41
2021/04/06 02:53:10;;;;;;;11.93;1.73;;;1.50;99.90;;;-0.28;91.43;100975.03;3541291;39;102484;-41
2021/04/06 02:55:39;;;;;;;5.90;1.30;;;1.50;99.90;;;-0.26;90.64;100973.94;3540888;39;106195;-41
2021/04/06 02:58:17;;;;;;;8.90;1.27;;;1.50;99.90;;;-0.22;91.45;100969.13;3542227;39;102439;-41
2021/04/06 03:00:45;;;;;;;3.83;1.13;;;1.60;99.90;;;-0.19;91.12;100972.38;3542837;39;103676;-41
2021/04/06 03:03:24;;;;;;;8.32;1.38;;;1.60;99.90;;;-0.22;90.58;100966.44;3550821;39;102242;-41
2021/04/06 03:06:03;;;;;;;4.47;1.20;;;1.60;99.90;;;-0.21;90.58;100966.31;3550635;39;103430;-41
2021/04/06 03:08:32;;;;;;;5.80;1.30;;;1.60;99.90;;;-0.15;90.90;100970.25;3550365;39;105184;-41
2021/04/06 03:11:01;;;;;;;5.47;0.88;;;1.60;99.90;;;-0.17;90.96;100959.69;3542666;39;103012;-41
2021/04/06 03:13:29;;;;;;;4.40;1.02;;;1.60;99.90;;;-0.17;90.25;100956.13;3558279;39;102418;-40
2021/04/06 03:15:58;;;;;;;7.60;1.75;;;1.60;99.90;;;-0.16;90.03;100956.00;3534296;39;104885;-41
2021/04/06 03:18:38;;;;;;;6.95;1.38;;;1.60;99.90;;;-0.19;89.69;100942.03;3550525;39;102431;-41
2021/04/06 03:21:10;;;;;;;5.88;1.08;;;1.60;99.90;;;-0.12;89.64;100950.38;3550562;39;102305;-43
2021/04/06 03:23:39;;;;;;;12.93;1.60;;;1.70;99.90;;;-0.11;89.25;100950.25;3550592;39;102195;-40
2021/04/06 03:26:07;;;;;;;4.97;1.42;;;1.70;99.90;;;-0.13;89.68;100946.84;3558799;39;102936;-41
2021/04/06 03:28:38;;;;;;;8.75;1.30;;;1.70;99.90;;;-0.09;89.41;100936.66;3550685;39;102385;-41
2021/04/06 03:31:09;;;;;;;7.20;1.23;;;1.60;99.90;;;-0.09;88.85;100948.25;3550574;39;105874;-41
2021/04/06 03:33:41;;;;;;;4.75;1.25;;;1.70;99.90;;;-0.17;89.56;100937.34;3558367;39;102422;-40
2021/04/06 03:36:28;;;;;;;5.20;1.00;;;1.70;99.90;;;-0.20;88.81;100938.50;3558863;39;104909;-41
2021/04/06 03:39:01;;;;;;;;;;;1.60;99.90;;;-0.25;88.90;100932.72;3559348;39;102446;-41
2021/04/06 03:41:31;;;;;;;3.30;0.70;;;1.60;99.90;;;-0.30;89.39;100924.22;3559196;39;103017;-41
2021/04/06 03:44:10;;;;;;;6.70;0.88;;;1.50;99.90;;;-0.34;88.64;100933.53;3550487;39;102282;-41
2021/04/06 03:46:41;;;;;;;2.20;0.90;;;1.50;99.90;;;-0.43;89.13;100921.78;3558962;39;105274;-41
2021/04/06 03:49:21;;;;;;;7.38;1.38;;;1.40;99.90;;;-0.54;88.93;100922.75;3550531;39;105078;-41
2021/04/06 03:51:54;;;;;;;3.72;0.90;;;1.40;99.90;;;-0.61;89.60;100909.06;3559403;39;103114;-43
2021/04/06 03:54:43;;;;;;;6.38;1.08;;;1.30;99.90;;;-0.61;88.72;100910.91;3542048;39;102901;-41
2021/04/06 03:57:22;;;;;;;4.25;0.75;;;1.20;99.90;;;-0.65;89.25;100921.06;3558169;39;103087;-41
2021/04/06 03:59:50;;;;;;;7.75;1.23;;;1.20;99.90;;;-0.68;89.29;100910.59;3558554;39;104205;-41
2021/04/06 04:02:17;;;;;;;7.20;1.17;;;1.20;99.90;;;-0.67;89.36;100916.81;3550345;39;104092;-41
2021/04/06 04:04:45;;;;;;;6.47;1.23;;;1.20;99.90;;;-0.69;89.76;100927.66;3550025;39;102537;-41
2021/04/06 04:07:14;;;;;;;8.57;1.80;;;1.10;99.90;;;-0.68;90.34;100920.47;3541898;39;102272;-42
2021/04/06 04:09:41;;;;;;;9.27;1.38;;;1.10;99.90;;;-0.73;90.29;100924.41;3542085;39;105243;-41
2021/04/06 04:12:09;;;;;;;8.07;1.50;;;1.10;99.90;;;-0.81;89.85;100926.91;3534081;39;105577;-41
2021/04/06 04:14:37;;;;;;;11.07;1.55;;;1.10;99.90;;;-0.84;90.43;100929.03;3550014;39;102414;-41
2021/04/06 04:17:06;;;;;;;5.20;1.23;;;1.00;99.90;;;-0.81;90.73;100934.94;3542329;39;102259;-41
2021/04/06 04:19:35;;;;;;;11.88;1.67;;;1.00;99.90;;;-0.80;90.17;100935.81;3558692;39;102331;-41
2021/04/06 04:22:03;;;;;;;6.35;1.02;;;1.00;99.90;;;-0.86;90.34;100931.81;3542205;39;104691;-41
2021/04/06 04:24:31;;;;;;;10.80;1.30;;;1.00;99.90;;;-0.80;90.46;100933.13;3541955;39;104430;-41
2021/04/06 04:26:59;;;;;;;9.88;1.42;;;1.00;99.90;;;-0.88;90.06;100941.84;3542043;39;105362;-41
2021/04/06 04:29:27;;;;;;;9.60;1.50;;;1.00;99.90;;;-0.89;90.05;100937.47;3542152;39;103128;-42
2021/04/06 04:31:54;;;;;;;8.70;1.63;;;1.00;99.90;;;-0.89;89.71;100946.34;3559741;39;105307;-41
2021/04/06 04:34:22;;;;;;;8.90;1.53;;;1.00;99.90;;;-0.93;90.42;100941.38;3550262;39;104126;-41
2021/04/06 04:36:49;;;;;;;7.13;1.57;;;0.90;99.90;;;-0.95;90.84;100944.19;3550581;39;103193;-41
2021/04/06 04:39:16;;;;;;;11.73;1.55;;;0.90;99.90;;;-0.94;90.57;100953.09;3542245;39;102598;-41
2021/04/06 04:41:43;;;;;;;9.15;1.83;;;0.90;99.90;;;-0.98;90.15;100962.38;3550264;39;105956;-41
2021/04/06 04:44:10;;;;;;;7.47;1.98;;;0.90;99.90;;;-0.98;90.38;100965.06;3541484;39;102399;-41
2021/04/06 04:46:38;;;;;;;9.50;2.07;;;0.90;99.90;;;-1.05;90.47;100962.91;3550359;39;104024;-41
2021/04/06 04:49:05;;;;;;;6.55;1.60;;;0.80;99.90;;;-1.04;90.57;100959.25;3541823;39;102450;-41
2021/04/06 04:51:32;;;;;;;9.88;2.10;;;0.80;99.90;;;-0.97;90.58;100954.19;3550430;39;104914;-41
2021/04/06 04:53:59;;;;;;;7.70;1.33;;;0.90;99.90;;;-1.00;90.36;100964.34;3541674;39;102410;-41
2021/04/06 18:16:38;;;;;;;1.98;0.90;;;2.10;99.90;;;0.16;82.37;100838.69;3569029;39;102109;-41
2021/04/06 18:19:05;;;;;;;5.35;1.45;;;2.00;99.90;;;0.17;82.58;100834.16;3548026;39;102300;-40
2021/04/06 18:21:32;;;;;;;5.35;1.00;;;2.00;99.90;;;0.07;83.32;100835.03;3547638;39;102218;-41
2021/04/06 18:23:59;;;;;;;3.22;1.33;;;2.00;99.90;;;0.09;83.26;100838.41;3547190;39;102364;-40
2021/04/06 18:26:26;;;;;;;4.95;1.42;;;2.00;99.90;;;0.06;83.85;100844.06;3547468;39;102378;-41
2021/04/06 18:28:59;;;;;;;5.45;1.90;;;1.90;99.90;;;0.03;84.06;100843.47;3557117;39;102406;-41
2021/04/06 18:31:28;;;;;;;3.65;1.60;;;1.90;99.90;;;0.03;84.88;100855.09;3547259;39;103070;-41
2021/04/06 18:33:55;;;;;;;4.07;1.60;;;1.90;99.90;;;0.01;84.63;100851.69;3555458;39;104196;-40
2021/04/06 18:36:22;;;;;;;6.28;1.58;;;1.90;99.90;;;0.08;85.59;100855.50;3539692;39;102767;-41
2021/04/06 18:38:49;;;;;;;5.50;1.60;;;1.90;99.90;;;0.03;84.74;100852.41;3557158;39;104094;-41
2021/04/06 18:41:36;;;;;;;2.65;1.27;;;1.90;99.90;;;0.05;84.69;100854.91;3548991;39;103996;-41
2021/04/06 18:44:04;;;;;;;;;;;1.90;99.90;;;0.10;84.45;100866.06;3539789;39;103242;-40
2021/04/06 18:46:31;;;;;;;3.17;1.40;;;1.90;99.90;;;0.06;83.99;100865.53;3539723;39;103868;-41
2021/04/06 18:48:59;;;;;;;4.05;1.67;;;1.90;99.90;;;0.05;84.79;100871.88;3555883;39;102348;-41
2021/04/06 18:51:27;;;;;;;8.10;2.17;;;1.90;99.90;;;0.03;84.34;100867.63;3547364;39;102200;-41
2021/04/06 18:53:54;;;;;;;6.18;1.50;;;1.80;99.90;;;0.03;84.79;100865.81;3538746;39;102542;-41
2021/04/06 18:56:22;;;;;;;4.47;1.75;;;1.90;99.90;;;0.05;84.81;100863.81;3547449;39;102166;-40
2021/04/06 18:58:49;;;;;;;2.42;1.48;;;1.90;99.90;;;0.02;83.69;100876.66;3547170;39;103515;-41
2021/04/06 19:01:17;;;;;;;4.93;1.48;;;1.80;99.90;;;0.03;84.00;100871.19;3555607;39;103202;-41
2021/04/06 19:03:44;;;;;;;3.15;1.00;;;1.80;99.90;;;0.07;82.93;100869.03;3556541;39;102435;-41
2021/04/06 19:06:11;;;;;;;1.42;0.80;;;1.80;99.90;;;0.03;83.67;100871.19;3539380;39;103197;-41
2021/04/06 19:08:38;;;;;;;1.77;0.73;;;1.90;99.90;;;-0.09;84.72;100883.88;3538217;39;102390;-40
2021/04/06 19:11:06;;;;;;;3.05;0.77;;;1.80;99.90;;;-0.13;85.41;100884.28;3547341;39;104149;-41
2021/04/06 19:13:33;;;;;;;2.53;1.00;;;1.70;99.90;;;-0.29;86.61;100893.72;3555056;39;102798;-41
2021/04/06 19:16:01;;;;;;;1.92;0.68;;;1.60;99.90;;;-0.41;87.64;100884.97;3555250;39;103278;-41
2021/04/06 19:18:32;;;;;;;1.23;0.50;;;1.50;99.90;;;-0.52;87.86;100896.69;3555434;39;102226;-41
2021/04/06 19:21:15;;;;;;;0.65;0.47;;;1.40;99.90;;;-0.58;87.98;100894.53;3557055;39;103998;-41
2021/04/06 19:23:45;;;;;;;2.95;0.70;;;1.40;99.90;;;-0.66;88.35;100892.56;3556055;39;104231;-41
2021/04/06 19:26:13;;;;;;;1.10;0.50;;;1.30;99.90;;;-0.63;88.23;100896.78;3545516;39;104146;-41
2021/04/06 19:28:42;;;;;;;1.83;0.57;;;1.30;99.90;;;-0.67;89.04;100893.53;3549098;39;104057;-41
2021/04/06 19:31:12;;;;;;;1.08;0.85;;;1.20;99.90;;;-0.65;89.27;100891.59;3549853;39;103911;-41
2021/04/06 19:33:42;;;;;;;1.25;0.70;;;1.20;99.90;;;-0.67;89.41;100893.53;3540162;39;103260;-40
2021/04/06 19:36:12;;;;;;;5.00;0.80;;;1.20;99.90;;;-0.69;88.64;100900.84;3540812;39;103870;-41
2021/04/06 19:38:40;;;;;;;1.55;0.68;;;1.20;99.90;;;-0.70;88.24;100901.00;3550034;39;102270;-41
2021/04/06 19:41:09;;;;;;;7.45;0.90;;;1.20;99.90;;;-0.72;87.90;100903.81;3548772;39;102428;-41
2021/04/06 19:43:37;;;;;;;1.75;0.50;;;1.20;99.90;;;-0.78;88.25;100899.88;3548341;39;102639;-40
2021/04/06 19:46:04;;;;;;;0.95;0.45;;;1.20;99.90;;;-0.77;87.51;100904.25;3548886;39;104917;-41
2021/04/06 19:48:33;;;;;;;2.90;0.70;;;1.20;99.90;;;-0.76;87.31;100913.09;3549184;39;102294;-41
2021/04/06 19:51:01;;;;;;;1.13;0.60;;;1.10;99.90;;;-0.82;87.72;100908.31;3540621;39;103242;-41
2021/04/06 19:53:28;;;;;;;2.10;0.90;;;1.10;99.90;;;-0.79;87.88;100908.88;3540129;39;102495;-40
2021/04/06 19:55:56;;;;;;;1.08;0.60;;;1.10;99.90;;;-0.80;87.26;100909.84;3540407;39;104046;-41
2021/04/06 19:58:25;;;;;;;;;;;1.10;99.90;;;-0.84;87.20;100927.19;3541821;39;102311;-41
2021/04/06 20:00:58;;;;;;;3.65;1.10;;;1.10;99.90;;;-0.82;86.91;100916.34;3549536;39;102428;-41
2021/04/06 20:03:26;;;;;;;1.27;0.70;;;1.00;99.90;;;-0.83;87.04;100922.69;3548599;39;103204;-40
2021/04/06 20:05:55;;;;;;;1.73;0.80;;;1.10;99.90;;;-0.81;87.55;100926.91;3548740;39;102377;-41
2021/04/06 20:08:22;;;;;;;2.55;0.93;;;1.10;99.90;;;-0.83;88.07;100926.19;3548203;39;103277;-40
2021/04/06 20:10:53;;;;;;;1.87;1.00;;;1.10;99.90;;;-0.78;87.40;100928.47;3540493;39;102321;-41
2021/04/06 20:13:26;;;;;;;1.73;0.95;;;1.10;99.90;;;-0.89;87.80;100908.00;3549449;39;102384;-41
2021/04/06 20:15:59;;;;;;;2.38;0.95;;;1.10;99.90;;;-0.75;88.00;100933.56;3548415;39;103091;-39
2021/04/06 20:18:28;;;;;;;4.35;1.30;;;1.10;99.90;;;-0.76;87.79;100934.53;3548735;39;102475;-39
2021/04/06 20:21:02;;;;;;;4.15;1.40;;;1.10;99.90;;;-0.75;87.56;100930.88;3548491;39;105508;-39
2021/04/06 20:23:30;;;;;;;3.58;1.13;;;1.10;99.90;;;-0.69;87.96;100934.84;3548287;39;102283;-40
2021/04/06 20:25:59;;;;;;;3.72;1.27;;;1.20;99.90;;;-0.66;87.07;100929.22;3548655;39;102551;-41
2021/04/06 20:28:31;;;;;;;5.88;1.60;;;1.20;99.90;;;-0.65;87.07;100925.56;3549434;39;103300;-41
2021/04/06 20:31:06;;;;;;;2.00;1.10;;;1.20;99.90;;;-0.64;87.72;100933.47;3540626;39;104224;-41
2021/04/06 20:33:46;;;;;;;3.85;1.20;;;1.20;99.90;;;-0.64;87.63;100941.50;3548310;39;105157;-40
2021/04/06 20:36:15;;;;;;;3.65;1.27;;;1.20;99.90;;;-0.67;88.20;100943.59;3548612;39;104110;-41
2021/04/06 20:38:44;;;;;;;4.45;1.55;;;1.20;99.90;;;-0.62;88.24;100933.31;3548977;39;102307;-41
2021/04/06 20:41:14;;;;;;;3.55;1.42;;;1.20;99.90;;;-0.63;88.35;100942.34;3540150;39;102269;-41
2021/04/06 20:43:43;;;;;;;5.60;1.55;;;1.20;99.90;;;-0.62;87.75;100941.38;3548013;39;103130;-41
2021/04/06 20:46:11;;;;;;;5.53;1.98;;;1.20;99.90;;;-0.63;88.05;100928.94;3548350;39;104047;-41
2021/04/06 20:48:40;;;;;;;4.80;1.75;;;1.20;99.90;;;-0.68;88.06;100933.88;3539810;39;105000;-41
2021/04/06 20:51:10;;;;;;;4.00;1.90;;;1.20;99.90;;;-0.70;88.29;100943.88;3540298;39;103410;-41
2021/04/06 20:53:39;;;;;;;4.35;1.90;;;1.20;99.90;;;-0.67;88.15;100939.09;3531219;39;103482;-41
2021/04/06 20:56:09;;;;;;;6.10;2.17;;;1.20;99.90;;;-0.70;88.35;100935.84;3549294;39;102339;-41
2021/04/06 20:58:37;;;;;;;3.83;2.30;;;1.10;99.90;;;-0.67;88.54;100933.72;3548704;39;102446;-41
2021/04/06 21:01:08;;;;;;;8.18;2.67;;;1.20;99.90;;;-0.67;88.38;100941.75;3540239;39;102321;-41
2021/04/06 21:03:56;;;;;;;5.95;2.42;;;1.10;99.90;;;-0.71;88.68;100942.19;3548548;39;102478;-40
2021/04/06 21:06:24;;;;;;;6.43;2.78;;;1.20;99.90;;;-0.69;88.31;100943.72;3531701;39;103202;-41
2021/04/06 21:08:54;;;;;;;6.57;2.70;;;1.10;99.90;;;-0.79;88.38;100930.31;3548480;39;104110;-41
2021/04/06 21:11:24;;;;;;;6.95;2.30;;;1.10;99.90;;;-0.74;87.41;100940.63;3531949;39;102190;-41
2021/04/06 21:13:51;;;;;;;7.72;2.83;;;1.10;99.90;;;-0.77;87.42;100949.78;3548577;39;103252;-41
2021/04/06 21:16:19;;;;;;;5.30;2.60;;;1.10;99.90;;;-0.84;87.19;100945.94;3540025;39;103051;-41
2021/04/06 21:18:46;;;;;;;4.22;2.30;;;1.00;99.90;;;-0.84;87.39;100950.47;3548076;39;104118;-41
2021/04/06 21:21:15;;;;;;;4.40;2.20;;;1.00;99.90;;;-0.90;87.31;100951.84;3540288;39;103147;-41
2021/04/06 21:23:42;;;;;;;3.40;2.00;;;1.00;99.90;;;-0.96;87.96;100955.88;3539651;39;102472;-41
2021/04/06 21:26:10;;;;;;;5.78;1.92;;;0.90;99.90;;;-0.97;88.23;100953.38;3548562;39;103983;-41
2021/04/06 21:28:42;;;;;;;3.45;1.65;;;0.90;99.90;;;-0.98;88.05;100965.06;3548345;39;104147;-41
2021/04/06 21:31:15;;;;;;;4.38;2.05;;;0.90;99.90;;;-0.98;88.76;100952.50;3532457;39;105562;-41
2021/04/06 21:33:43;;;;;;;4.68;1.80;;;0.90;99.90;;;-0.94;88.49;100963.81;3531309;39;102548;-41
2021/04/06 21:36:11;;;;;;;;;;;0.90;99.90;;;-0.99;87.96;100953.47;3540416;39;103373;-41
2021/04/06 21:38:39;;;;;;;4.88;2.10;;;0.90;99.90;;;-1.08;88.45;100943.59;3539992;39;102366;-41
2021/04/06 21:41:07;;;;;;;5.53;2.45;;;0.90;99.90;;;-1.00;88.57;100967.84;3547821;39;102229;-41
2021/04/06 21:43:36;;;;;;;6.60;2.60;;;0.90;99.90;;;-1.01;87.87;100968.84;3539297;39;102480;-41
2021/04/06 21:46:03;;;;;;;7.60;2.92;;;0.90;99.90;;;-1.07;88.65;100964.84;3539764;39;103100;-41
2021/04/06 21:48:31;;;;;;;9.18;2.60;;;0.80;99.90;;;-1.07;87.87;100970.22;3523467;39;102423;-41
2021/04/06 21:51:02;;;;;;;8.77;3.33;;;0.80;99.90;;;-1.15;88.21;100978.06;3539848;39;102238;-41
2021/04/06 21:53:31;;;;;;;7.03;2.85;;;0.80;99.90;;;-1.11;88.44;100971.47;3547601;39;103359;-41
2021/04/06 21:55:58;;;;;;;7.25;3.08;;;0.80;99.90;;;-1.16;88.42;100979.91;3539715;39;104067;-41
2021/04/06 21:58:25;;;;;;;7.43;2.87;;;0.70;99.90;;;-1.13;88.94;100978.78;3547915;39;102312;-41
2021/04/06 22:00:54;;;;;;;8.18;2.95;;;0.70;99.90;;;-1.16;88.69;100979.06;3539774;39;103940;-41
2021/04/06 22:03:21;;;;;;;6.32;3.15;;;0.70;99.90;;;-1.11;88.42;100982.19;3539435;39;102424;-41
2021/04/06 22:05:48;;;;;;;5.50;2.90;;;0.70;99.90;;;-1.12;88.12;100988.50;3539629;39;105302;-41
2021/04/06 22:08:15;;;;;;;5.82;2.50;;;0.70;99.90;;;-1.08;88.27;100994.47;3539373;39;104163;-41
2021/04/06 22:10:43;;;;;;;9.43;3.08;;;0.80;99.90;;;-1.11;88.65;100994.72;3539601;39;104308;-42
2021/04/06 22:13:11;;;;;;;8.55;3.13;;;0.80;99.90;;;-1.11;88.66;100992.06;3531595;39;102320;-41
2021/04/06 22:15:41;;;;;;;7.47;3.22;;;0.80;99.90;;;-1.11;88.05;100998.25;3539179;39;104723;-41
2021/04/06 22:18:10;;;;;;;7.13;2.83;;;0.70;99.90;;;-1.18;88.59;100994.41;3547976;39;105494;-41
2021/04/06 22:20:43;;;;;;;5.53;2.85;;;0.70;99.90;;;-1.22;88.14;101006.34;3556055;39;103151;-39
2021/04/06 22:23:24;;;;;;;6.80;2.88;;;0.70;99.90;;;-1.28;88.13;101009.56;3539433;39;104471;-39
2021/04/06 22:25:52;;;;;;;6.32;2.80;;;0.70;99.90;;;-1.31;88.98;101000.81;3547707;39;105087;-39
2021/04/06 22:28:26;;;;;;;5.88;2.80;;;0.60;99.90;;;-1.36;88.89;101005.69;3547631;39;102478;-39
2021/04/06 22:30:58;;;;;;;5.63;2.60;;;0.60;99.90;;;-1.42;88.31;101003.53;3531069;39;104381;-39
2021/04/06 22:33:29;;;;;;;5.07;2.45;;;0.50;99.90;;;-1.44;88.32;101013.53;3538984;39;102473;-40
2021/04/06 22:35:58;;;;;;;7.43;2.78;;;0.50;99.90;;;-1.42;89.11;101008.88;3547840;39;104111;-41
2021/04/06 22:38:31;;;;;;;6.18;2.35;;;0.50;99.90;;;-1.37;88.48;101012.03;3549418;39;102064;-41
2021/04/06 22:40:58;;;;;;;5.65;2.15;;;0.50;99.90;;;-1.29;88.57;101015.91;3539493;39;103126;-42
2021/04/06 22:43:26;;;;;;;7.50;2.60;;;0.60;99.90;;;-1.32;88.64;101019.69;3522742;39;104332;-39
2021/04/06 22:45:53;;;;;;;4.95;2.40;;;0.50;99.90;;;-1.22;88.86;101017.06;3531407;39;103134;-39
2021/04/06 22:48:23;;;;;;;5.13;2.35;;;0.60;99.90;;;-1.24;88.49;101022.53;3539588;39;102583;-39
2021/04/06 22:50:52;;;;;;;3.47;2.22;;;0.60;99.90;;;-1.25;88.41;101020.00;3539068;39;103189;-39
2021/04/06 22:53:23;;;;;;;6.78;2.30;;;0.60;99.90;;;-1.27;88.35;101017.44;3538706;39;102677;-39
2021/04/06 22:55:57;;;;;;;7.22;2.22;;;0.60;99.90;;;-1.17;89.02;101020.19;3547896;39;102112;-39
2021/04/06 22:58:28;;;;;;;4.95;2.05;;;0.70;99.90;;;-1.19;87.83;101020.34;3531146;39;102362;-39
2021/04/06 23:01:06;;;;;;;6.07;2.10;;;0.70;99.90;;;-1.22;87.90;101025.09;3531429;39;102311;-40
2021/04/06 23:03:37;;;;;;;5.47;1.93;;;0.60;99.90;;;-1.26;88.51;101023.66;3548686;39;102848;-41
2021/04/06 23:06:08;;;;;;;5.18;1.63;;;0.60;99.90;;;-1.32;87.71;101033.94;3548817;39;103258;-41
2021/04/06 23:08:36;;;;;;;3.58;1.83;;;0.60;99.90;;;-1.37;87.72;101033.44;3539571;39;103455;-41
2021/04/06 23:11:06;;;;;;;8.52;1.70;;;0.50;99.90;;;-1.43;88.23;101033.97;3549073;39;105859;-41
2021/04/06 23:13:36;;;;;;;4.13;1.85;;;0.50;99.90;;;-1.49;87.86;101029.13;3531881;39;102365;-41
2021/04/06 23:16:06;;;;;;;3.95;1.75;;;0.40;99.90;;;-1.52;87.99;101026.72;3532455;39;102294;-41
2021/04/06 23:18:35;;;;;;;5.65;2.40;;;0.40;99.90;;;-1.56;88.09;101035.97;3548531;39;102556;-41
2021/04/06 23:21:05;;;;;;;4.07;1.77;;;0.30;99.90;;;-1.78;88.42;101014.50;3540582;39;104252;-41
2021/04/06 23:23:33;;;;;;;4.22;1.67;;;0.30;99.90;;;-1.69;87.89;101038.81;3548305;39;102454;-41
2021/04/06 23:26:00;;;;;;;3.40;1.70;;;0.20;99.90;;;-1.61;88.54;101031.00;3540376;39;105022;-41
2021/04/06 23:28:28;;;;;;;2.75;1.75;;;0.30;99.90;;;-1.74;87.97;101031.16;3540436;39;103505;-41
2021/04/06 23:30:55;;;;;;;4.67;1.87;;;0.20;99.90;;;-1.72;88.23;101034.56;3523980;39;104028;-41
2021/04/06 23:33:23;;;;;;;4.82;1.73;;;0.20;99.90;;;-1.81;88.66;101038.00;3523951;39;102791;-40
2021/04/06 23:35:53;;;;;;;3.25;1.45;;;0.20;99.90;;;-1.82;88.83;101034.47;3532047;39;105474;-41
2021/04/06 23:38:23;;;;;;;5.50;2.13;;;0.10;99.90;;;-1.77;88.46;101037.63;3541109;39;103145;-41
2021/04/06 23:40:51;;;;;;;7.40;1.90;;;0.10;99.90;;;-1.82;88.89;101033.63;3548618;39;102566;-41
2021/04/06 23:43:21;;;;;;;5.38;2.00;;;0.10;99.90;;;-1.85;88.39;101033.91;3548376;39;102571;-40
2021/04/06 23:45:49;;;;;;;9.00;2.35;;;0.10;99.90;;;-1.87;88.21;101042.03;3540116;39;103009;-41
2021/04/06 23:48:16;;;;;;;3.72;1.70;;;0.10;99.90;;;-1.91;88.80;101048.59;3523915;39;103352;-41
2021/04/06 23:50:43;;;;;;;4.87;2.40;;;0.00;99.90;;;-1.91;88.83;101038.75;3532157;39;103213;-41
2021/04/06 23:53:11;;;;;;;4.40;2.05;;;0.00;99.90;;;-1.92;88.34;101041.56;3531963;39;102336;-42